Sammy — 3ETS7 — position and weather

sailwx.info

Track history (hours):
 
Tides and Currents Weather Stations Pressure Air Temp Water Temp Dewpoint Dewpoint Depression Visibility Wind Speed Wind Dir Waves Ship Positions

Sammy

Last reported at 2018-Apr-05 00:24 UTC. Time now 2018-Jun-21 20:07 UTC.
Position N 01°37' E 102°54'.
Warning: this ship's position is months out of date.

Length 228 m; draft 14.9 m.

Type: Cargo ship. MMSI: 373842000.

Date/timePositionNaut miles runAvg speedWind from/ knotsBaromVisibWave heightAir tempDewpointWater temp
2018-Apr-05 00:24N 01°37' E 102°54'3012.3
2018-Apr-04 21:58N 01°20' E 103°18'611.9
2018-Apr-04 21:29N 01°17' E 103°22'511.3
2018-Apr-04 21:00N 01°13' E 103°27'1110.7
2018-Apr-04 20:00N 01°11' E 103°37'510.1
2018-Apr-04 19:30N 01°09' E 103°42'4 8.4
2018-Apr-04 19:00N 01°10' E 103°46'611.9
2018-Apr-04 18:30N 01°12' E 103°52'510.3
2018-Apr-04 17:59N 01°15' E 103°56'2 0.5
2018-Apr-04 14:29N 01°16' E 103°57'0 0.0
2018-Apr-04 07:50N 01°16' E 103°57'1 2.4
2018-Apr-04 07:30N 01°15' E 103°57'3 5.7
2018-Apr-04 06:59N 01°16' E 104°00'  
Track history (hours):
 
Tides and Currents Weather Stations Pressure Air Temp Water Temp Dewpoint Dewpoint Depression Visibility Wind Speed Wind Dir Waves Ship Positions

Sammy

Last reported at 2018-Apr-05 00:24 UTC. Time now 2018-Jun-21 20:07 UTC.
Position N 01°37' E 102°54'.
Warning: this ship's position is months out of date.

Length 228 m; draft 14.9 m.

Type: Cargo ship. MMSI: 373842000.

Date/timePositionNaut miles runAvg speedWind from/ knotsBaromVisibWave heightAir tempDewpointWater temp
2018-Apr-05 00:24N 01°37' E 102°54'3012.3
2018-Apr-04 21:58N 01°20' E 103°18'611.9
2018-Apr-04 21:29N 01°17' E 103°22'511.3
2018-Apr-04 21:00N 01°13' E 103°27'1110.7
2018-Apr-04 20:00N 01°11' E 103°37'510.1
2018-Apr-04 19:30N 01°09' E 103°42'4 8.4
2018-Apr-04 19:00N 01°10' E 103°46'611.9
2018-Apr-04 18:30N 01°12' E 103°52'510.3
2018-Apr-04 17:59N 01°15' E 103°56'2 0.5
2018-Apr-04 14:29N 01°16' E 103°57'0 0.0
2018-Apr-04 07:50N 01°16' E 103°57'1 2.4
2018-Apr-04 07:30N 01°15' E 103°57'3 5.7
2018-Apr-04 06:59N 01°16' E 104°00'  

Dump ship's entire track history